Time;durP1;ratioP1;P1;durP2;ratioP2;P2;SDS_P1;SDS_P2;PMS_P1;PMS_P2;Temp;Humidity;BMP_temperature;BMP_pressure;BME280_temperature;BME280_humidity;BME280_pressure;Samples;Min_cycle;Max_cycle;Signal;HPM_P1;HPM_P2
2022/09/14 00:00:06;;;;;;;5.97;1.52;;;25.20;99.90;;;;;;5037317;28;20069;-70
2022/09/14 00:02:32;;;;;;;8.00;1.73;;;25.30;99.90;;;;;;5039453;28;20071;-69
2022/09/14 00:04:58;;;;;;;8.82;1.98;;;25.30;99.90;;;;;;5034883;28;20122;-69
2022/09/14 00:07:24;;;;;;;9.13;1.88;;;25.30;99.90;;;;;;5020249;28;20045;-69
2022/09/14 00:09:51;;;;;;;6.93;1.60;;;25.30;99.90;;;;;;5036143;28;20042;-69
2022/09/14 00:12:17;;;;;;;8.43;2.08;;;25.30;99.90;;;;;;5034486;28;20041;-68
2022/09/14 00:14:44;;;;;;;4.45;1.42;;;25.30;99.90;;;;;;5037769;28;20040;-71
2022/09/14 00:17:10;;;;;;;5.50;1.30;;;25.30;99.90;;;;;;5034372;28;20037;-70
2022/09/14 00:19:37;;;;;;;4.78;1.23;;;25.30;99.90;;;;;;5039994;28;20048;-69
2022/09/14 00:22:05;;;;;;;7.78;1.88;;;25.30;99.90;;;;;;5032027;28;20029;-71
2022/09/14 00:24:33;;;;;;;7.82;1.42;;;25.30;99.90;;;;;;5040666;28;20033;-71
2022/09/14 00:26:59;;;;;;;7.82;1.73;;;25.30;99.90;;;;;;5035322;28;20057;-69
2022/09/14 00:29:25;;;;;;;6.95;1.45;;;25.20;99.90;;;;;;5033850;28;20547;-71
2022/09/14 00:31:51;;;;;;;6.07;1.50;;;25.20;99.90;;;;;;5031868;28;20034;-73
2022/09/14 00:34:18;;;;;;;7.78;2.28;;;25.20;99.90;;;;;;5020026;28;20094;-69
2022/09/14 00:36:46;;;;;;;8.43;1.92;;;25.20;99.90;;;;;;5022635;28;20116;-69
2022/09/14 00:39:12;;;;;;;5.68;1.60;;;25.10;99.90;;;;;;5025851;28;20052;-69
2022/09/14 00:41:40;;;;;;;7.57;2.00;;;25.10;99.90;;;;;;5039677;28;20064;-70
2022/09/14 00:44:26;;;;;;;6.43;1.85;;;25.10;99.90;;;;;;5024571;28;20033;-69
2022/09/14 00:46:56;;;;;;;6.10;1.70;;;25.20;99.90;;;;;;5033386;28;20083;-69
2022/09/14 00:49:36;;;;;;;6.43;1.42;;;25.20;99.90;;;;;;5032987;28;20040;-69
2022/09/14 00:52:12;;;;;;;7.78;1.50;;;25.30;99.90;;;;;;5034903;28;20045;-70
2022/09/14 00:54:44;;;;;;;7.78;1.40;;;25.30;99.90;;;;;;5035812;28;20037;-70
2022/09/14 00:57:10;;;;;;;6.68;1.98;;;25.30;99.90;;;;;;5008991;28;20519;-71
2022/09/14 00:59:39;;;;;;;8.15;1.50;;;25.30;99.90;;;;;;5035744;28;20034;-71
2022/09/14 01:02:11;;;;;;;9.90;1.73;;;25.30;99.90;;;;;;5034113;28;20086;-71
2022/09/14 01:04:37;;;;;;;6.72;1.88;;;25.30;99.90;;;;;;5044640;28;20532;-70
2022/09/14 01:07:09;;;;;;;6.47;1.50;;;25.30;99.90;;;;;;5035889;28;20111;-72
2022/09/14 01:10:08;;;;;;;7.50;1.63;;;25.30;99.90;;;;;;5043227;28;20033;-71
2022/09/14 01:12:44;;;;;;;7.30;1.77;;;25.30;99.90;;;;;;5029836;28;20033;-70
2022/09/14 01:15:16;;;;;;;7.05;1.75;;;25.30;99.90;;;;;;5023132;28;20033;-72
2022/09/14 01:18:06;;;;;;;9.35;1.90;;;25.30;99.90;;;;;;5036307;28;20037;-69
2022/09/14 01:20:54;;;;;;;6.43;1.92;;;25.40;99.90;;;;;;5034031;28;20037;-71
2022/09/14 01:23:47;;;;;;;6.03;1.45;;;25.50;99.90;;;;;;5034115;28;20045;-69
2022/09/14 01:26:37;;;;;;;9.23;1.85;;;25.50;99.90;;;;;;5030421;28;20087;-69
2022/09/14 01:29:53;;;;;;;10.10;1.85;;;24.90;99.90;;;;;;5046558;28;20492;-70
2022/09/14 01:32:29;;;;;;;10.90;1.70;;;24.50;99.90;;;;;;5018315;28;20036;-70
2022/09/14 01:35:00;;;;;;;7.90;1.40;;;24.40;99.90;;;;;;5038986;28;20120;-71
2022/09/14 01:37:44;;;;;;;6.53;1.38;;;24.30;99.90;;;;;;5035848;28;20030;-70
2022/09/14 01:40:32;;;;;;;7.68;1.55;;;24.00;99.90;;;;;;5030923;28;20711;-69
2022/09/14 01:43:05;;;;;;;3.88;1.05;;;23.90;99.90;;;;;;5036546;28;20068;-69
2022/09/14 01:45:33;;;;;;;7.07;1.35;;;23.90;99.90;;;;;;5039414;28;20040;-69
2022/09/14 01:48:03;;;;;;;4.28;1.17;;;23.70;99.90;;;;;;5039490;28;20092;-69
2022/09/14 01:50:51;;;;;;;6.80;1.60;;;23.80;99.90;;;;;;5034916;28;20533;-69
2022/09/14 01:53:36;;;;;;;6.30;1.40;;;23.90;99.90;;;;;;5037855;28;20469;-69
2022/09/14 01:56:09;;;;;;;6.82;1.58;;;23.60;99.90;;;;;;5035829;28;20465;-73
2022/09/14 01:58:47;;;;;;;9.32;1.20;;;23.40;99.90;;;;;;5037773;28;20037;-74
2022/09/14 02:01:18;;;;;;;7.20;1.40;;;23.00;99.90;;;;;;5046449;28;20087;-73
2022/09/14 02:03:50;;;;;;;10.17;1.83;;;22.50;99.90;;;;;;5045177;28;20041;-73
2022/09/14 02:06:38;;;;;;;2.72;1.25;;;22.10;99.90;;;;;;5029550;28;20477;-74
2022/09/14 02:09:07;;;;;;;8.40;1.02;;;21.80;99.90;;;;;;5034762;28;20033;-72
2022/09/14 02:11:39;;;;;;;6.78;1.30;;;21.20;99.90;;;;;;5019060;28;20057;-73
2022/09/14 02:14:05;;;;;;;6.05;1.13;;;21.00;99.90;;;;;;5035391;28;20068;-73
2022/09/14 02:16:31;;;;;;;3.70;0.98;;;21.00;99.90;;;;;;5039722;28;20133;-74
2022/09/14 02:19:00;;;;;;;5.65;1.05;;;20.90;99.90;;;;;;5034990;28;20049;-72
2022/09/14 02:21:31;;;;;;;6.63;1.25;;;20.70;99.90;;;;;;5036234;28;20417;-73
2022/09/14 02:23:59;;;;;;;6.03;1.52;;;20.40;99.90;;;;;;5036150;28;20032;-73
2022/09/14 02:26:25;;;;;;;5.68;1.17;;;20.20;99.90;;;;;;5034989;28;20407;-71
2022/09/14 02:28:55;;;;;;;5.00;0.90;;;20.20;99.90;;;;;;5040113;28;20101;-72
2022/09/14 02:31:31;;;;;;;8.00;1.60;;;20.30;99.90;;;;;;5035565;28;20060;-71
2022/09/14 02:34:09;;;;;;;7.18;1.60;;;20.30;99.90;;;;;;5040977;28;20051;-73
2022/09/14 02:36:45;;;;;;;6.07;1.48;;;20.30;99.90;;;;;;5037183;28;20030;-72
2022/09/14 02:39:32;;;;;;;7.00;1.08;;;20.40;99.90;;;;;;5039455;28;20048;-72
2022/09/14 02:42:12;;;;;;;5.00;1.20;;;20.50;99.90;;;;;;5037306;28;20025;-72
2022/09/14 02:44:49;;;;;;;8.20;1.67;;;20.70;99.90;;;;;;5034505;28;20040;-71
2022/09/14 02:47:15;;;;;;;3.83;0.80;;;20.90;99.90;;;;;;5036722;28;20035;-71
2022/09/14 02:49:48;;;;;;;4.88;1.48;;;21.30;99.90;;;;;;5040130;28;20021;-73
2022/09/14 02:52:20;;;;;;;7.55;1.40;;;21.50;99.90;;;;;;5044022;28;20033;-72
2022/09/14 02:55:06;;;;;;;8.90;1.70;;;21.30;99.90;;;;;;5040288;28;20033;-72
2022/09/14 02:57:32;;;;;;;8.45;1.55;;;21.50;99.90;;;;;;5038103;28;20045;-72
2022/09/14 02:59:58;;;;;;;8.15;1.33;;;21.60;99.90;;;;;;5040821;28;20045;-72
2022/09/14 03:02:24;;;;;;;9.23;1.75;;;21.70;99.90;;;;;;5038298;28;20037;-72
2022/09/14 03:04:50;;;;;;;8.13;1.45;;;21.80;99.90;;;;;;5038874;28;20168;-72
2022/09/14 03:07:19;;;;;;;7.28;1.50;;;21.90;99.90;;;;;;5044434;28;20083;-73
2022/09/14 03:09:46;;;;;;;9.63;1.60;;;22.00;99.90;;;;;;5047568;28;20122;-73
2022/09/14 03:12:11;;;;;;;7.80;1.40;;;22.00;99.90;;;;;;5042754;28;20033;-72
2022/09/14 03:14:38;;;;;;;7.93;1.75;;;22.00;99.90;;;;;;5038664;28;20035;-72
2022/09/14 03:17:05;;;;;;;5.18;1.52;;;22.10;99.90;;;;;;5038677;28;20057;-72
2022/09/14 03:19:30;;;;;;;7.50;1.75;;;22.20;99.90;;;;;;5038391;28;20037;-74
2022/09/14 03:21:57;;;;;;;6.57;1.40;;;22.10;99.90;;;;;;5038645;28;20120;-72
2022/09/14 03:24:23;;;;;;;8.00;1.73;;;22.10;99.90;;;;;;5036611;28;20128;-72
2022/09/14 03:26:51;;;;;;;10.27;1.88;;;22.10;99.90;;;;;;5041539;28;20061;-74
2022/09/14 03:29:16;;;;;;;9.20;2.00;;;22.20;99.90;;;;;;5038341;28;20037;-73
2022/09/14 03:31:42;;;;;;;7.65;1.80;;;22.20;99.90;;;;;;5039644;28;20031;-73
2022/09/14 03:34:09;;;;;;;8.95;2.17;;;22.20;99.90;;;;;;5032736;28;20036;-73
2022/09/14 03:36:35;;;;;;;7.70;1.52;;;21.90;99.90;;;;;;5038983;28;20029;-76
2022/09/14 03:39:01;;;;;;;8.80;1.48;;;21.90;99.90;;;;;;5035008;28;20043;-74
2022/09/14 03:41:27;;;;;;;9.15;1.92;;;21.80;99.90;;;;;;5040020;28;20095;-73
2022/09/14 03:43:54;;;;;;;7.88;1.60;;;21.90;99.90;;;;;;5047097;28;20033;-75
2022/09/14 03:46:23;;;;;;;8.05;2.03;;;22.00;99.90;;;;;;5039763;28;20029;-73
2022/09/14 03:48:49;;;;;;;8.13;2.28;;;22.00;99.90;;;;;;5038713;28;20037;-74
2022/09/14 03:51:17;;;;;;;9.40;1.95;;;22.10;99.90;;;;;;5038230;28;20041;-74
2022/09/14 03:53:44;;;;;;;7.45;1.80;;;22.20;99.90;;;;;;5035660;28;20033;-73
2022/09/14 03:56:13;;;;;;;8.63;1.80;;;22.30;99.90;;;;;;5036365;28;20524;-73
2022/09/14 03:58:40;;;;;;;6.63;1.60;;;22.50;99.90;;;;;;5041492;28;20519;-73
2022/09/14 04:01:09;;;;;;;8.60;1.67;;;22.60;99.90;;;;;;5037482;28;20029;-76
2022/09/14 04:03:36;;;;;;;11.30;1.90;;;22.60;99.90;;;;;;5036128;28;20128;-75
2022/09/14 04:06:06;;;;;;;10.80;2.33;;;22.60;99.90;;;;;;5038146;28;20053;-73
2022/09/14 04:08:36;;;;;;;6.35;1.55;;;22.50;99.90;;;;;;5036537;28;20101;-73
2022/09/14 04:11:17;;;;;;;10.57;1.70;;;22.40;99.90;;;;;;5034577;28;20136;-74
2022/09/14 04:13:43;;;;;;;8.38;1.75;;;22.40;99.90;;;;;;5037043;28;20029;-73
2022/09/14 04:16:09;;;;;;;7.28;1.90;;;22.50;99.90;;;;;;5027338;28;20040;-74
2022/09/14 04:18:35;;;;;;;9.05;2.00;;;22.60;99.90;;;;;;5034861;28;20034;-75
2022/09/14 04:21:05;;;;;;;7.88;1.80;;;22.60;99.90;;;;;;5040952;28;20029;-73
2022/09/14 04:23:31;;;;;;;8.95;1.60;;;22.60;99.90;;;;;;5042706;28;20041;-74
2022/09/14 04:25:57;;;;;;;8.55;1.85;;;22.80;99.90;;;;;;5037007;28;20507;-74
2022/09/14 04:28:24;;;;;;;5.72;1.25;;;22.80;99.90;;;;;;5039768;28;20125;-74
2022/09/14 04:30:59;;;;;;;9.80;1.27;;;22.80;99.90;;;;;;5034283;28;20029;-73
2022/09/14 04:33:28;;;;;;;7.75;1.52;;;22.90;99.90;;;;;;5036191;28;20029;-74
2022/09/14 04:36:05;;;;;;;9.40;2.75;;;23.10;99.90;;;;;;5035974;28;20025;-74
2022/09/14 04:38:32;;;;;;;9.27;1.95;;;23.00;99.90;;;;;;5037158;28;20506;-73
2022/09/14 04:40:59;;;;;;;9.70;1.92;;;23.10;99.90;;;;;;5034249;28;20049;-76
2022/09/14 04:43:25;;;;;;;8.70;1.83;;;23.10;99.90;;;;;;5039898;28;20087;-73
2022/09/14 04:45:51;;;;;;;8.75;2.25;;;23.10;99.90;;;;;;5037547;28;20030;-74
2022/09/14 04:48:18;;;;;;;9.90;1.80;;;23.10;99.90;;;;;;5035528;28;20112;-73
2022/09/14 04:50:44;;;;;;;7.63;1.45;;;23.10;99.90;;;;;;5038989;28;20108;-73
2022/09/14 04:53:10;;;;;;;8.73;1.90;;;23.20;99.90;;;;;;5045017;28;20095;-73
2022/09/14 04:55:36;;;;;;;10.13;1.80;;;23.20;99.90;;;;;;5038552;28;20030;-75
2022/09/14 04:58:03;;;;;;;6.47;1.60;;;23.20;99.90;;;;;;5036057;28;20037;-73
2022/09/14 05:00:28;;;;;;;6.82;1.50;;;23.30;99.90;;;;;;5040612;28;20064;-73
2022/09/14 05:02:54;;;;;;;11.60;2.08;;;23.40;99.90;;;;;;5038518;28;20057;-73
2022/09/14 05:05:20;;;;;;;8.13;1.98;;;23.40;99.90;;;;;;5038449;28;20037;-75
2022/09/14 05:07:46;;;;;;;7.03;1.92;;;23.20;99.90;;;;;;5036700;28;20477;-75
2022/09/14 05:10:11;;;;;;;9.73;1.90;;;23.20;99.90;;;;;;5037927;28;20116;-74
2022/09/14 05:12:37;;;;;;;7.53;1.40;;;23.20;99.90;;;;;;5031926;28;20137;-73
2022/09/14 05:15:04;;;;;;;9.65;1.75;;;23.30;99.90;;;;;;5037299;28;20036;-73
2022/09/14 05:17:34;;;;;;;9.65;1.95;;;23.30;99.90;;;;;;5036747;28;20025;-74
2022/09/14 05:20:00;;;;;;;6.57;1.60;;;23.40;99.90;;;;;;5034090;28;20037;-74
2022/09/14 05:22:25;;;;;;;12.35;1.75;;;23.40;99.90;;;;;;5033766;28;20485;-73
2022/09/14 05:24:51;;;;;;;8.23;1.70;;;23.40;99.90;;;;;;5040186;28;20072;-72
2022/09/14 05:27:17;;;;;;;11.45;1.88;;;23.50;99.90;;;;;;5035192;28;20107;-73
2022/09/14 05:29:42;;;;;;;11.00;1.90;;;23.60;99.90;;;;;;5041002;28;20029;-73
2022/09/14 05:32:08;;;;;;;9.50;2.03;;;23.60;99.90;;;;;;5035828;28;20106;-75
2022/09/14 05:34:34;;;;;;;9.73;2.53;;;23.60;99.90;;;;;;5035020;28;20029;-74
2022/09/14 05:37:00;;;;;;;10.07;2.38;;;23.60;99.90;;;;;;5044903;28;20036;-73
2022/09/14 05:39:25;;;;;;;7.05;2.10;;;23.60;99.90;;;;;;5033992;28;20116;-73
2022/09/14 05:41:52;;;;;;;9.30;1.75;;;23.60;99.90;;;;;;5039248;28;20033;-74
2022/09/14 05:44:18;;;;;;;9.70;1.73;;;23.50;99.90;;;;;;5035787;28;20615;-73
2022/09/14 05:46:44;;;;;;;8.60;1.80;;;23.60;99.90;;;;;;5033608;28;20172;-74
2022/09/14 05:49:09;;;;;;;9.52;2.65;;;23.60;99.90;;;;;;5033491;28;20041;-74
2022/09/14 05:51:36;;;;;;;6.38;1.95;;;23.50;99.90;;;;;;5038651;28;20239;-74
2022/09/14 05:54:08;;;;;;;10.13;2.83;;;23.40;99.90;;;;;;5036184;28;20063;-73
2022/09/14 05:56:34;;;;;;;10.82;2.22;;;23.30;99.90;;;;;;5033101;28;20040;-73
2022/09/14 05:58:59;;;;;;;14.93;3.13;;;23.20;99.90;;;;;;5039943;28;20029;-73
2022/09/14 06:01:31;;;;;;;11.00;2.47;;;23.20;99.90;;;;;;5031809;28;20065;-73
2022/09/14 06:03:59;;;;;;;9.07;2.47;;;23.20;99.90;;;;;;5035034;28;20053;-74
2022/09/14 06:06:25;;;;;;;6.07;2.05;;;23.20;99.90;;;;;;5030597;28;20033;-73
2022/09/14 06:08:52;;;;;;;9.50;2.90;;;22.90;99.90;;;;;;5035055;28;20481;-74
2022/09/14 06:11:25;;;;;;;11.20;2.63;;;22.60;99.90;;;;;;5034263;28;20038;-73
2022/09/14 06:13:53;;;;;;;9.13;2.00;;;22.50;99.90;;;;;;5032905;28;20036;-73
2022/09/14 06:16:20;;;;;;;11.05;3.00;;;22.50;99.90;;;;;;5032592;28;20037;-74
2022/09/14 06:18:47;;;;;;;13.63;2.90;;;22.50;99.90;;;;;;5037275;28;20046;-73
2022/09/14 06:21:15;;;;;;;11.60;3.17;;;22.50;99.90;;;;;;5040563;28;20037;-72
2022/09/14 06:23:42;;;;;;;8.95;2.13;;;22.50;99.90;;;;;;5033589;28;20414;-73
2022/09/14 06:26:08;;;;;;;15.90;2.78;;;22.50;99.90;;;;;;5037382;28;20036;-74
2022/09/14 06:28:35;;;;;;;14.27;3.10;;;22.70;99.90;;;;;;5033117;28;20033;-74
2022/09/14 06:31:03;;;;;;;10.52;2.60;;;22.80;99.90;;;;;;5034101;28;20748;-73
2022/09/14 06:33:30;;;;;;;8.77;2.28;;;22.90;99.90;;;;;;5031274;28;20029;-74
2022/09/14 06:36:01;;;;;;;8.75;2.45;;;23.00;99.90;;;;;;5037917;28;20064;-74
2022/09/14 06:38:28;;;;;;;10.65;2.38;;;23.10;99.90;;;;;;5030935;28;20050;-73
2022/09/14 06:40:56;;;;;;;11.20;2.33;;;23.20;99.90;;;;;;5034492;28;20029;-74
2022/09/14 06:43:27;;;;;;;9.32;1.90;;;23.20;99.90;;;;;;5035729;28;20113;-73
2022/09/14 06:46:13;;;;;;;9.40;1.92;;;23.20;99.90;;;;;;5036431;28;20029;-73
2022/09/14 06:48:45;;;;;;;10.88;1.75;;;23.20;99.90;;;;;;5033826;28;20443;-73
2022/09/14 06:51:40;;;;;;;6.40;2.08;;;22.90;99.90;;;;;;5032517;28;20040;-74
2022/09/14 06:54:07;;;;;;;9.13;2.08;;;22.50;99.90;;;;;;5032810;28;20036;-73
2022/09/14 06:56:35;;;;;;;8.93;2.25;;;22.30;99.90;;;;;;5036038;28;20428;-72
2022/09/14 06:59:02;;;;;;;13.23;2.40;;;22.40;99.90;;;;;;5041091;28;20547;-72
2022/09/14 07:01:28;;;;;;;9.50;2.40;;;22.30;99.90;;;;;;5036531;28;20098;-75
2022/09/14 07:03:55;;;;;;;10.18;2.50;;;22.50;99.90;;;;;;5028725;28;20042;-73
2022/09/14 07:06:26;;;;;;;14.40;2.70;;;22.80;99.90;;;;;;5027958;28;20440;-74
2022/09/14 07:08:53;;;;;;;9.30;3.17;;;23.10;99.90;;;;;;5035111;28;20111;-73
2022/09/14 07:11:21;;;;;;;9.90;2.45;;;23.30;99.90;;;;;;5033845;28;20026;-74
2022/09/14 07:13:47;;;;;;;13.30;2.60;;;23.40;99.90;;;;;;5032576;28;20030;-74
2022/09/14 07:16:14;;;;;;;9.95;2.70;;;23.50;99.90;;;;;;5038379;28;20394;-74
2022/09/14 07:18:40;;;;;;;9.65;2.83;;;23.60;99.90;;;;;;5044398;28;20052;-74
2022/09/14 07:21:08;;;;;;;10.48;2.75;;;23.60;99.90;;;;;;5038344;28;20033;-74
2022/09/14 07:23:36;;;;;;;11.70;3.10;;;23.70;99.90;;;;;;5045922;28;20029;-72
2022/09/14 07:26:17;;;;;;;9.00;2.50;;;23.70;99.90;;;;;;5042844;28;20053;-74
2022/09/14 07:28:49;;;;;;;12.02;2.88;;;23.80;99.90;;;;;;5042471;28;20045;-74
2022/09/14 07:31:17;;;;;;;12.00;2.97;;;23.90;99.90;;;;;;5033901;28;20037;-76
2022/09/14 07:33:44;;;;;;;15.57;3.58;;;24.00;99.90;;;;;;5037724;28;20085;-74
2022/09/14 07:36:12;;;;;;;9.82;3.42;;;24.00;99.90;;;;;;5038219;28;20025;-74
2022/09/14 07:38:38;;;;;;;13.35;3.47;;;24.00;99.90;;;;;;5038348;28;20155;-72
2022/09/14 07:41:04;;;;;;;14.38;3.90;;;23.90;99.90;;;;;;5025384;28;20734;-74
2022/09/14 07:43:30;;;;;;;13.88;3.10;;;23.90;99.90;;;;;;5036723;28;20092;-73
2022/09/14 07:45:56;;;;;;;12.88;3.45;;;24.00;99.90;;;;;;5034581;28;20033;-72
2022/09/14 07:48:22;;;;;;;12.63;3.25;;;24.00;99.90;;;;;;5036507;28;20029;-73
2022/09/14 07:50:57;;;;;;;14.07;3.20;;;24.00;99.90;;;;;;5042843;28;20039;-72
2022/09/14 07:53:23;;;;;;;13.40;2.92;;;24.00;99.90;;;;;;5036785;28;20040;-72
2022/09/14 07:55:49;;;;;;;12.68;2.83;;;24.10;99.90;;;;;;5033444;28;20035;-73
2022/09/14 07:58:15;;;;;;;14.35;3.03;;;24.10;99.90;;;;;;5032929;28;21187;-73
2022/09/14 08:00:40;;;;;;;14.32;3.40;;;24.10;99.90;;;;;;5033965;28;20045;-73
2022/09/14 08:03:07;;;;;;;12.90;3.47;;;24.10;99.90;;;;;;5029936;28;20044;-73
2022/09/14 08:05:33;;;;;;;12.68;3.28;;;24.10;99.90;;;;;;5024852;28;20033;-74
2022/09/14 08:07:59;;;;;;;10.90;2.85;;;24.10;99.90;;;;;;5027646;28;20047;-73
2022/09/14 08:10:25;;;;;;;13.50;3.28;;;24.10;99.90;;;;;;5035246;28;20033;-73
2022/09/14 08:12:55;;;;;;;9.45;2.20;;;24.10;99.90;;;;;;5030649;28;20112;-73
2022/09/14 08:15:22;;;;;;;10.52;2.58;;;24.10;99.90;;;;;;5031902;28;20104;-72
2022/09/14 08:17:49;;;;;;;9.95;2.50;;;24.10;99.90;;;;;;5031522;28;20048;-73
2022/09/14 08:20:15;;;;;;;9.85;2.65;;;24.00;99.90;;;;;;5036503;28;20045;-72
2022/09/14 08:22:43;;;;;;;10.10;2.35;;;24.00;99.90;;;;;;5030340;28;20045;-73
2022/09/14 08:25:09;;;;;;;11.90;2.50;;;24.00;99.90;;;;;;5032246;28;20038;-73
2022/09/14 08:27:35;;;;;;;11.85;2.70;;;24.00;99.90;;;;;;5029914;28;20060;-72
2022/09/14 08:30:02;;;;;;;9.73;2.25;;;24.00;99.90;;;;;;5030842;28;20437;-73
2022/09/14 08:32:28;;;;;;;7.50;1.95;;;24.10;99.90;;;;;;5028945;28;20029;-72
2022/09/14 08:34:53;;;;;;;12.20;2.47;;;24.20;99.90;;;;;;5045345;28;20041;-73
2022/09/14 08:37:19;;;;;;;12.13;2.47;;;24.30;99.90;;;;;;5026966;28;20037;-73
2022/09/14 08:39:45;;;;;;;12.35;2.55;;;24.40;99.90;;;;;;5033441;28;20043;-73
2022/09/14 08:42:17;;;;;;;11.25;2.42;;;24.50;99.90;;;;;;5033438;28;20372;-73
2022/09/14 08:44:42;;;;;;;12.98;2.75;;;24.50;99.90;;;;;;5033464;28;20029;-73
2022/09/14 08:47:31;;;;;;;12.65;2.33;;;24.50;99.90;;;;;;5027252;28;20047;-72
2022/09/14 08:50:01;;;;;;;9.13;2.30;;;24.40;99.90;;;;;;5029759;28;20037;-73
2022/09/14 08:52:28;;;;;;;9.90;2.70;;;24.40;99.90;;;;;;5036617;28;20663;-73
2022/09/14 08:54:59;;;;;;;10.30;2.42;;;24.30;99.90;;;;;;5046892;28;20029;-73
2022/09/14 08:57:31;;;;;;;11.25;2.83;;;24.30;99.90;;;;;;5031883;28;20037;-74
2022/09/14 09:00:12;;;;;;;10.10;2.75;;;24.30;99.90;;;;;;5032292;28;20029;-73
2022/09/14 09:02:59;;;;;;;11.35;2.80;;;24.30;99.90;;;;;;5030090;28;20041;-73
2022/09/14 09:05:42;;;;;;;9.80;2.75;;;24.30;99.90;;;;;;5030260;28;20038;-73
2022/09/14 09:08:36;;;;;;;11.80;3.15;;;24.40;99.90;;;;;;5033380;28;20041;-73
2022/09/14 09:11:04;;;;;;;7.72;2.55;;;24.50;99.90;;;;;;5028975;28;20093;-74
2022/09/14 09:13:34;;;;;;;10.25;3.22;;;24.60;99.90;;;;;;5035640;28;20037;-73
2022/09/14 09:16:05;;;;;;;11.50;2.72;;;24.40;99.90;;;;;;5032247;28;21133;-74
2022/09/14 09:18:42;;;;;;;9.43;2.65;;;24.10;99.90;;;;;;5033018;28;20053;-74
2022/09/14 09:21:28;;;;;;;10.02;2.22;;;24.10;99.90;;;;;;5032861;28;20037;-73
2022/09/14 09:24:17;;;;;;;9.68;2.70;;;24.30;99.90;;;;;;5023039;28;20033;-74
2022/09/14 09:26:43;;;;;;;11.18;2.33;;;24.50;99.90;;;;;;5024613;28;20037;-73
2022/09/14 09:29:10;;;;;;;7.20;2.13;;;24.70;99.90;;;;;;5026399;28;20052;-73
2022/09/14 09:31:42;;;;;;;8.98;2.63;;;25.00;99.90;;;;;;5006534;28;20119;-72
2022/09/14 09:34:12;;;;;;;15.52;2.63;;;25.20;99.90;;;;;;5027748;28;20049;-74
2022/09/14 09:36:47;;;;;;;11.75;2.50;;;25.30;99.90;;;;;;5034968;28;20120;-75
2022/09/14 09:39:14;;;;;;;8.73;2.25;;;25.40;99.90;;;;;;5029289;28;20049;-74
2022/09/14 09:41:56;;;;;;;9.20;2.67;;;25.50;99.90;;;;;;5033967;28;20125;-73
2022/09/14 09:44:22;;;;;;;;;;;25.60;99.90;;;;;;5031856;28;20045;-73
2022/09/14 09:46:54;;;;;;;11.13;2.88;;;25.70;99.90;;;;;;5021903;28;19925;-74
2022/09/14 09:49:24;;;;;;;9.05;2.33;;;25.80;99.90;;;;;;5030957;28;20041;-73
2022/09/14 09:51:52;;;;;;;13.48;3.03;;;25.90;99.90;;;;;;5020699;28;20041;-73
2022/09/14 09:54:29;;;;;;;13.98;2.78;;;25.90;99.90;;;;;;5032843;28;20195;-73
2022/09/14 09:57:04;;;;;;;8.13;3.03;;;25.90;99.90;;;;;;5033498;28;20071;-73
2022/09/14 09:59:36;;;;;;;12.50;2.78;;;25.90;99.90;;;;;;5033801;28;20053;-74
2022/09/14 10:02:31;;;;;;;;;;;26.00;99.90;;;;;;5036625;28;20094;-74
2022/09/14 10:05:00;;;;;;;11.05;2.35;;;26.10;99.90;;;;;;5004659;28;20014;-74
2022/09/14 10:07:27;;;;;;;9.75;2.38;;;26.10;99.90;;;;;;5032237;28;20501;-73
2022/09/14 10:10:01;;;;;;;9.30;1.92;;;26.30;99.90;;;;;;5033008;28;20548;-73
2022/09/14 10:12:28;;;;;;;11.52;2.58;;;26.20;99.90;;;;;;5034938;28;20043;-74
2022/09/14 10:15:28;;;;;;;7.18;2.35;;;26.20;99.90;;;;;;5031504;28;20441;-74
2022/09/14 10:18:12;;;;;;;11.38;2.75;;;26.20;99.90;;;;;;5034412;28;20437;-74
2022/09/14 10:21:00;;;;;;;13.52;3.50;;;26.40;99.90;;;;;;5024011;28;20048;-74
2022/09/14 10:23:29;;;;;;;12.98;2.63;;;26.60;99.90;;;;;;5042070;28;20388;-74
2022/09/14 10:26:18;;;;;;;13.80;2.63;;;26.70;99.90;;;;;;5035377;28;20092;-74
2022/09/14 10:28:48;;;;;;;14.65;2.78;;;26.60;99.90;;;;;;5031307;28;20519;-73
2022/09/14 10:31:24;;;;;;;11.52;3.08;;;26.60;99.90;;;;;;5032082;28;20038;-74
2022/09/14 10:33:55;;;;;;;11.18;2.50;;;26.60;99.90;;;;;;5036066;28;20507;-74
2022/09/14 10:36:46;;;;;;;7.80;2.38;;;26.60;99.90;;;;;;5024502;28;20034;-74
2022/09/14 10:39:28;;;;;;;13.50;2.20;;;26.70;99.90;;;;;;5029179;28;20048;-75
2022/09/14 10:42:16;;;;;;;8.50;2.00;;;26.60;99.90;;;;;;5033767;28;20033;-73
2022/09/14 10:44:45;;;;;;;7.20;2.10;;;26.60;99.90;;;;;;5034380;28;20093;-74
2022/09/14 10:47:29;;;;;;;20.25;10.05;;;26.70;99.90;;;;;;5030487;28;20038;-74
2022/09/14 10:50:01;;;;;;;15.30;2.63;;;26.70;99.90;;;;;;5036710;28;20117;-74
2022/09/14 10:52:30;;;;;;;;;;;26.50;99.90;;;;;;5035762;28;20040;-75
2022/09/14 10:55:19;;;;;;;11.05;2.50;;;26.40;99.90;;;;;;5035036;28;19908;-74
2022/09/14 10:57:56;;;;;;;11.68;2.20;;;26.40;99.90;;;;;;5020048;28;20074;-74
2022/09/14 11:00:23;;;;;;;9.20;1.90;;;26.30;99.90;;;;;;5035454;28;20041;-75
2022/09/14 11:02:58;;;;;;;9.30;2.53;;;26.20;99.90;;;;;;5044236;28;20040;-75
2022/09/14 11:05:33;;;;;;;9.18;1.95;;;26.20;99.90;;;;;;5036023;28;20068;-73
2022/09/14 11:08:03;;;;;;;12.57;2.30;;;26.10;99.90;;;;;;5036780;28;20059;-74
2022/09/14 11:10:52;;;;;;;6.18;2.10;;;26.10;99.90;;;;;;5033181;28;20120;-74
2022/09/14 11:13:56;;;;;;;10.15;3.25;;;26.20;99.90;;;;;;5028498;28;20045;-74
2022/09/14 11:16:46;;;;;;;11.93;2.55;;;26.30;99.90;;;;;;5037913;28;20476;-75
2022/09/14 11:19:19;;;;;;;9.55;2.67;;;26.50;99.90;;;;;;5026833;28;20061;-75
2022/09/14 11:22:23;;;;;;;15.00;2.33;;;26.60;99.90;;;;;;5028163;28;20057;-74
2022/09/14 11:25:02;;;;;;;9.27;2.45;;;26.60;99.90;;;;;;5033268;28;20357;-73
2022/09/14 11:27:54;;;;;;;11.50;2.40;;;26.60;99.90;;;;;;5032895;28;20037;-75
2022/09/14 11:30:33;;;;;;;7.20;1.98;;;26.50;99.90;;;;;;5036544;28;20038;-75
2022/09/14 11:34:00;;;;;;;10.77;2.47;;;26.50;99.90;;;;;;5036824;28;20037;-74
2022/09/14 11:36:37;;;;;;;13.50;2.10;;;26.60;99.90;;;;;;4968345;28;20041;-75
2022/09/14 11:39:37;;;;;;;9.35;1.92;;;26.80;99.90;;;;;;5031191;28;20727;-76
2022/09/14 11:42:08;;;;;;;9.88;2.08;;;26.70;99.90;;;;;;5029292;28;20367;-74
2022/09/14 11:44:39;;;;;;;9.48;2.33;;;26.80;99.90;;;;;;5038108;28;20041;-74
2022/09/14 11:47:12;;;;;;;9.90;3.37;;;26.80;99.90;;;;;;5031581;28;20048;-74
2022/09/14 11:50:05;;;;;;;14.77;2.40;;;26.90;99.90;;;;;;5034476;28;20033;-75
2022/09/14 11:52:32;;;;;;;8.90;2.20;;;26.80;99.90;;;;;;5033959;28;20030;-76
2022/09/14 11:54:59;;;;;;;14.45;2.53;;;26.70;99.90;;;;;;5029245;28;20342;-76
2022/09/14 11:57:31;;;;;;;9.30;1.85;;;26.70;99.90;;;;;;5033108;28;20025;-76
2022/09/14 11:59:59;;;;;;;7.37;1.90;;;26.40;99.90;;;;;;5035038;28;20037;-74
2022/09/14 12:02:26;;;;;;;11.23;2.17;;;26.50;99.90;;;;;;5039028;28;20029;-74
2022/09/14 12:05:04;;;;;;;9.43;1.75;;;26.60;99.90;;;;;;5035970;28;20033;-76
2022/09/14 12:07:41;;;;;;;6.72;2.05;;;26.60;99.90;;;;;;5039740;28;20090;-76
2022/09/14 12:10:13;;;;;;;10.48;2.08;;;26.80;99.90;;;;;;5011837;28;20059;-76
2022/09/14 12:12:55;;;;;;;9.02;2.00;;;26.90;99.90;;;;;;5041242;28;20481;-76
2022/09/14 12:15:27;;;;;;;5.57;1.70;;;26.90;99.90;;;;;;5031993;28;20025;-75
2022/09/14 12:18:20;;;;;;;10.55;1.60;;;26.70;99.90;;;;;;5050361;28;20040;-77
2022/09/14 12:21:00;;;;;;;12.73;2.08;;;26.60;99.90;;;;;;5034341;28;20396;-77
2022/09/14 12:23:40;;;;;;;8.20;1.70;;;26.70;99.90;;;;;;5035628;28;20112;-75
2022/09/14 12:26:30;;;;;;;10.93;2.00;;;26.60;99.90;;;;;;5036519;28;20091;-76
2022/09/14 12:29:01;;;;;;;10.80;2.10;;;26.60;99.90;;;;;;5032852;28;20029;-76
2022/09/14 12:31:46;;;;;;;8.30;1.88;;;26.60;99.90;;;;;;5040538;28;20038;-75
2022/09/14 12:34:18;;;;;;;6.88;2.22;;;26.70;99.90;;;;;;5032961;28;20408;-75
2022/09/14 12:36:44;;;;;;;;;;;26.70;99.90;;;;;;5033598;28;20179;-76
2022/09/14 12:39:29;;;;;;;9.77;2.40;;;26.60;99.90;;;;;;5033773;28;20007;-75
2022/09/14 12:41:56;;;;;;;11.88;2.40;;;26.80;99.90;;;;;;5038839;28;20455;-76
2022/09/14 12:44:54;;;;;;;14.55;2.53;;;26.80;99.90;;;;;;5038247;28;20109;-74
2022/09/14 12:47:29;;;;;;;9.77;2.30;;;26.90;99.90;;;;;;5035118;28;20033;-78
2022/09/14 12:50:14;;;;;;;11.63;2.63;;;26.80;99.90;;;;;;5033486;28;20040;-76
2022/09/14 12:53:05;;;;;;;16.23;3.17;;;26.80;99.90;;;;;;5038691;28;20814;-74
2022/09/14 12:56:14;;;;;;;13.00;3.15;;;26.90;99.90;;;;;;5035291;28;20477;-75
2022/09/14 12:58:49;;;;;;;13.50;2.47;;;27.10;99.90;;;;;;5030607;28;20493;-75
2022/09/14 13:01:28;;;;;;;14.07;2.78;;;26.90;99.90;;;;;;5033410;28;20051;-75
2022/09/14 13:03:55;;;;;;;8.32;2.13;;;27.10;99.90;;;;;;5036547;28;20030;-75
2022/09/14 13:06:23;;;;;;;9.85;2.40;;;27.10;99.90;;;;;;5032582;28;20472;-75
2022/09/14 13:08:53;;;;;;;11.57;2.30;;;27.10;99.90;;;;;;5035011;28;20053;-75